createdAt,value
2017-01-26T00:00:04.722Z,25.83
2017-01-26T00:00:32.694Z,25.83
2017-01-26T00:01:00.812Z,25.83
2017-01-26T00:01:28.953Z,25.73
2017-01-26T00:01:57.145Z,25.82
2017-01-26T00:02:25.335Z,25.81
2017-01-26T00:02:53.341Z,25.74
2017-01-26T00:03:21.624Z,25.7
2017-01-26T00:04:32.940Z,25.75
2017-01-26T00:05:01.103Z,25.78
2017-01-26T00:05:29.295Z,25.75
2017-01-26T00:05:57.349Z,25.82
2017-01-26T00:06:25.410Z,25.77
2017-01-26T00:06:53.529Z,25.83
2017-01-26T00:07:21.670Z,25.67
2017-01-26T00:07:49.865Z,25.67
2017-01-26T00:08:18.047Z,25.81
2017-01-26T00:08:45.962Z,25.73
2017-01-26T00:09:14.069Z,25.68
2017-01-26T00:10:25.203Z,25.67
2017-01-26T00:10:53.363Z,25.63
2017-01-26T00:11:21.643Z,25.59
2017-01-26T00:11:49.790Z,25.64
2017-01-26T00:12:17.852Z,25.63
2017-01-26T00:12:46.065Z,25.59
2017-01-26T00:13:14.113Z,25.67
2017-01-26T00:13:42.216Z,25.56
2017-01-26T00:14:10.226Z,25.56
2017-01-26T00:14:38.328Z,25.58
2017-01-26T00:15:06.418Z,25.55
2017-01-26T00:16:17.559Z,25.53
2017-01-26T00:16:45.723Z,25.55
2017-01-26T00:17:13.818Z,25.58
2017-01-26T00:17:42.057Z,25.56
2017-01-26T00:18:10.127Z,25.58
2017-01-26T00:18:38.251Z,25.61
2017-01-26T00:19:06.213Z,25.52
2017-01-26T00:19:34.313Z,25.53
2017-01-26T00:20:02.582Z,25.52
2017-01-26T00:20:30.400Z,25.56
2017-01-26T00:20:58.579Z,25.56
2017-01-26T00:22:09.716Z,25.53
2017-01-26T00:22:37.966Z,25.56
2017-01-26T00:23:06.063Z,25.58
2017-01-26T00:23:34.203Z,25.53
2017-01-26T00:24:02.275Z,25.56
2017-01-26T00:24:30.483Z,25.56
2017-01-26T00:24:58.622Z,25.46
2017-01-26T00:25:26.809Z,25.52
2017-01-26T00:25:55.000Z,25.46
2017-01-26T00:26:23.099Z,25.45
2017-01-26T00:26:51.378Z,25.41
2017-01-26T00:28:02.511Z,25.45
2017-01-26T00:28:30.765Z,25.4
2017-01-26T00:28:58.861Z,25.43
2017-01-26T00:29:27.005Z,25.45
2017-01-26T00:29:55.161Z,25.43
2017-01-26T00:30:23.094Z,25.4
2017-01-26T00:30:51.330Z,25.4
2017-01-26T00:31:19.520Z,25.4
2017-01-26T00:31:47.595Z,25.48
2017-01-26T00:32:15.605Z,25.51
2017-01-26T00:32:43.883Z,25.41
2017-01-26T00:33:55.069Z,25.41
2017-01-26T00:34:23.234Z,25.45
2017-01-26T00:34:51.513Z,25.41
2017-01-26T00:35:19.756Z,25.34
2017-01-26T00:35:47.935Z,25.4
2017-01-26T00:36:16.073Z,25.41
2017-01-26T00:36:44.306Z,25.41
2017-01-26T00:37:12.330Z,25.33
2017-01-26T00:37:40.540Z,25.41
2017-01-26T00:38:08.738Z,25.4
2017-01-26T00:38:37.017Z,25.4
2017-01-26T00:39:48.360Z,25.36
2017-01-26T00:40:16.640Z,25.33
2017-01-26T00:40:44.835Z,25.38
2017-01-26T00:41:13.071Z,25.37
2017-01-26T00:41:41.145Z,25.34
2017-01-26T00:42:09.080Z,25.34
2017-01-26T00:42:37.319Z,25.36
2017-01-26T00:43:05.419Z,25.28
2017-01-26T00:43:33.612Z,25.38
2017-01-26T00:44:01.714Z,25.36
2017-01-26T00:44:29.896Z,25.28
2017-01-26T00:45:41.123Z,25.34
2017-01-26T00:46:09.380Z,25.36
2017-01-26T00:46:37.666Z,25.34
2017-01-26T00:47:05.717Z,25.33
2017-01-26T00:47:33.778Z,25.37
2017-01-26T00:48:01.894Z,25.4
2017-01-26T00:48:30.129Z,25.33
2017-01-26T00:48:58.046Z,25.33
2017-01-26T00:49:26.227Z,25.3
2017-01-26T00:49:54.145Z,25.34
2017-01-26T00:50:22.233Z,25.37
2017-01-26T00:51:33.370Z,25.28
2017-01-26T00:52:01.538Z,25.33
2017-01-26T00:52:29.444Z,25.33
2017-01-26T00:52:57.502Z,25.27
2017-01-26T00:53:25.567Z,25.28
2017-01-26T00:53:53.499Z,25.27
2017-01-26T00:54:21.552Z,25.28
2017-01-26T00:54:49.742Z,25.3
2017-01-26T00:55:17.918Z,25.23
2017-01-26T00:55:45.921Z,25.28
2017-01-26T00:56:14.009Z,25.33
2017-01-26T00:57:25.235Z,25.27
2017-01-26T00:57:53.308Z,25.21
2017-01-26T00:58:21.494Z,25.3
2017-01-26T00:58:49.737Z,25.3
2017-01-26T00:59:17.711Z,25.27
2017-01-26T00:59:45.826Z,25.3
2017-01-26T01:00:14.059Z,25.31
2017-01-26T01:00:42.246Z,25.28
2017-01-26T01:01:10.438Z,25.3
2017-01-26T01:01:38.277Z,25.36
2017-01-26T01:02:06.458Z,25.18
2017-01-26T01:03:17.684Z,25.3
2017-01-26T01:03:45.843Z,25.22
2017-01-26T01:04:14.120Z,25.3
2017-01-26T01:04:42.173Z,25.27
2017-01-26T01:05:10.276Z,25.23
2017-01-26T01:05:38.496Z,25.23
2017-01-26T01:06:06.797Z,25.19
2017-01-26T01:06:34.988Z,25.21
2017-01-26T01:07:03.319Z,25.18
2017-01-26T01:07:31.593Z,25.16
2017-01-26T01:07:59.761Z,25.16
2017-01-26T01:09:11.060Z,25.12
2017-01-26T01:09:39.223Z,25.09
2017-01-26T01:10:07.543Z,25.15
2017-01-26T01:10:35.892Z,25.23
2017-01-26T01:11:04.104Z,25.12
2017-01-26T01:11:32.337Z,25.19
2017-01-26T01:12:00.568Z,25.06
2017-01-26T01:12:28.669Z,25.14
2017-01-26T01:12:57.405Z,25.23
2017-01-26T01:13:25.499Z,25.14
2017-01-26T01:13:53.856Z,25.15
2017-01-26T01:15:05.184Z,25.11
2017-01-26T01:15:33.353Z,25.16
2017-01-26T01:16:01.673Z,25.15
2017-01-26T01:16:29.943Z,25.22
2017-01-26T01:16:58.046Z,25.11
2017-01-26T01:17:26.204Z,25.27
2017-01-26T01:17:54.432Z,25.11
2017-01-26T01:18:22.713Z,25.21
2017-01-26T01:18:50.996Z,25.14
2017-01-26T01:19:19.142Z,25.11
2017-01-26T01:19:47.407Z,25.18
2017-01-26T01:20:58.627Z,25.15
2017-01-26T01:21:26.884Z,25.16
2017-01-26T01:21:55.211Z,25.14
2017-01-26T01:22:23.484Z,25.18
2017-01-26T01:22:51.591Z,25.09
2017-01-26T01:23:19.833Z,25.08
2017-01-26T01:23:48.056Z,25.22
2017-01-26T01:24:16.337Z,25.19
2017-01-26T01:24:44.696Z,25.04
2017-01-26T01:25:12.980Z,25.11
2017-01-26T01:25:41.635Z,25.09
2017-01-26T01:26:52.844Z,25.16
2017-01-26T01:27:21.007Z,25.08
2017-01-26T01:27:49.141Z,25.09
2017-01-26T01:28:17.499Z,25.11
2017-01-26T01:28:45.793Z,25.09
2017-01-26T01:29:14.125Z,25.12
2017-01-26T01:29:42.161Z,25.06
2017-01-26T01:30:10.349Z,25.06
2017-01-26T01:30:38.819Z,25.03
2017-01-26T01:31:06.811Z,25.03
2017-01-26T01:31:35.168Z,25.12
2017-01-26T01:32:46.465Z,25
2017-01-26T01:33:14.626Z,25.08
2017-01-26T01:33:42.843Z,24.99
2017-01-26T01:34:11.200Z,25.08
2017-01-26T01:34:39.306Z,25.04
2017-01-26T01:35:07.435Z,25.03
2017-01-26T01:35:35.735Z,25.04
2017-01-26T01:36:03.928Z,24.97
2017-01-26T01:36:32.270Z,25.06
2017-01-26T01:37:00.343Z,25.03
2017-01-26T01:37:28.688Z,25.04
2017-01-26T01:38:40.076Z,25
2017-01-26T01:39:08.240Z,25.09
2017-01-26T01:39:36.471Z,25.04
2017-01-26T01:40:04.636Z,25
2017-01-26T01:40:32.838Z,25.14
2017-01-26T01:41:00.879Z,25.09
2017-01-26T01:41:29.086Z,25
2017-01-26T01:41:57.273Z,25.11
2017-01-26T01:42:25.493Z,25.15
2017-01-26T01:42:53.561Z,25.03
2017-01-26T01:43:21.812Z,25.09
2017-01-26T01:44:33.209Z,25.09
2017-01-26T01:45:01.464Z,25.03
2017-01-26T01:45:29.783Z,25.09
2017-01-26T01:45:57.930Z,25.04
2017-01-26T01:46:25.928Z,25.04
2017-01-26T01:46:54.033Z,25
2017-01-26T01:47:21.987Z,25
2017-01-26T01:47:50.089Z,25.03
2017-01-26T01:48:18.266Z,25.01
2017-01-26T01:48:46.274Z,25
2017-01-26T01:49:14.455Z,24.91
2017-01-26T01:50:25.593Z,24.89
2017-01-26T01:50:53.850Z,25
2017-01-26T01:51:22.127Z,24.91
2017-01-26T01:51:50.362Z,24.99
2017-01-26T01:52:18.514Z,24.89
2017-01-26T01:52:46.638Z,24.93
2017-01-26T01:53:14.802Z,25
2017-01-26T01:53:42.995Z,24.93
2017-01-26T01:54:11.267Z,24.94
2017-01-26T01:54:39.371Z,24.94
2017-01-26T01:55:07.649Z,24.97
2017-01-26T01:56:18.879Z,24.9
2017-01-26T01:56:47.133Z,24.94
2017-01-26T01:57:15.412Z,24.93
2017-01-26T01:57:43.466Z,24.94
2017-01-26T01:58:11.716Z,24.94
2017-01-26T01:58:39.835Z,24.97
2017-01-26T01:59:07.976Z,24.89
2017-01-26T01:59:36.164Z,24.9
2017-01-26T02:00:04.441Z,24.94
2017-01-26T02:00:32.447Z,24.82
2017-01-26T02:01:00.635Z,24.84
2017-01-26T02:02:11.961Z,24.79
2017-01-26T02:02:40.027Z,24.75
2017-01-26T02:03:08.212Z,24.78
2017-01-26T02:03:36.360Z,24.81
2017-01-26T02:04:04.607Z,24.79
2017-01-26T02:04:32.820Z,24.86
2017-01-26T02:05:01.059Z,24.74
2017-01-26T02:05:29.149Z,24.76
2017-01-26T02:05:57.244Z,24.79
2017-01-26T02:06:25.438Z,24.79
2017-01-26T02:06:53.716Z,24.76
2017-01-26T02:08:04.849Z,24.75
2017-01-26T02:08:33.013Z,24.76
2017-01-26T02:09:01.207Z,24.78
2017-01-26T02:09:29.350Z,24.76
2017-01-26T02:09:57.323Z,24.84
2017-01-26T02:10:25.438Z,24.78
2017-01-26T02:10:53.495Z,24.84
2017-01-26T02:11:21.404Z,24.74
2017-01-26T02:11:49.490Z,24.79
2017-01-26T02:12:17.406Z,24.78
2017-01-26T02:12:45.586Z,24.75
2017-01-26T02:13:56.808Z,24.71
2017-01-26T02:14:25.062Z,24.71
2017-01-26T02:14:53.155Z,24.65
2017-01-26T02:15:21.022Z,24.71
2017-01-26T02:15:49.115Z,24.71
2017-01-26T02:16:17.229Z,24.66
2017-01-26T02:16:45.462Z,24.68
2017-01-26T02:17:13.472Z,24.65
2017-01-26T02:17:41.762Z,24.66
2017-01-26T02:18:09.959Z,24.65
2017-01-26T02:18:38.235Z,24.68
2017-01-26T02:19:49.464Z,24.65
2017-01-26T02:20:17.532Z,24.59
2017-01-26T02:20:45.713Z,24.62
2017-01-26T02:21:13.866Z,24.71
2017-01-26T02:21:41.938Z,24.68
2017-01-26T02:22:09.964Z,24.62
2017-01-26T02:22:38.203Z,24.6
2017-01-26T02:23:06.295Z,24.66
2017-01-26T02:23:34.297Z,24.62
2017-01-26T02:24:02.492Z,24.62
2017-01-26T02:24:30.680Z,24.6
2017-01-26T02:25:41.901Z,24.66
2017-01-26T02:26:10.061Z,24.65
2017-01-26T02:26:38.152Z,24.56
2017-01-26T02:27:06.298Z,24.59
2017-01-26T02:27:34.363Z,24.53
2017-01-26T02:28:02.481Z,24.6
2017-01-26T02:28:30.717Z,24.55
2017-01-26T02:28:59.001Z,24.52
2017-01-26T02:29:27.095Z,24.53
2017-01-26T02:29:55.101Z,24.52
2017-01-26T02:30:23.199Z,24.6
2017-01-26T02:31:34.557Z,24.53
2017-01-26T02:32:02.684Z,24.53
2017-01-26T02:32:30.777Z,24.62
2017-01-26T02:32:58.931Z,24.59
2017-01-26T02:33:27.175Z,24.58
2017-01-26T02:33:55.287Z,24.51
2017-01-26T02:34:23.520Z,24.55
2017-01-26T02:34:51.628Z,24.51
2017-01-26T02:35:19.703Z,24.58
2017-01-26T02:35:47.807Z,24.56
2017-01-26T02:36:15.895Z,24.62
2017-01-26T02:37:27.220Z,24.58
2017-01-26T02:37:55.474Z,24.44
2017-01-26T02:38:23.567Z,24.56
2017-01-26T02:38:51.622Z,24.43
2017-01-26T02:39:19.785Z,24.41
2017-01-26T02:39:47.907Z,24.45
2017-01-26T02:40:16.057Z,24.41
2017-01-26T02:40:44.364Z,24.4
2017-01-26T02:41:12.600Z,24.38
2017-01-26T02:41:40.602Z,24.36
2017-01-26T02:42:08.782Z,24.41
2017-01-26T02:43:19.919Z,24.43
2017-01-26T02:43:48.175Z,24.4
2017-01-26T02:44:16.460Z,24.4
2017-01-26T02:44:44.512Z,24.36
2017-01-26T02:45:12.577Z,24.44
2017-01-26T02:45:40.504Z,24.36
2017-01-26T02:46:08.644Z,24.33
2017-01-26T02:46:36.831Z,24.44
2017-01-26T02:47:04.821Z,24.29
2017-01-26T02:47:32.825Z,24.36
2017-01-26T02:48:00.917Z,24.37
2017-01-26T02:49:12.232Z,24.44
2017-01-26T02:49:40.301Z,24.4
2017-01-26T02:50:08.586Z,24.36
2017-01-26T02:50:36.532Z,24.37
2017-01-26T02:51:04.686Z,24.4
2017-01-26T02:51:32.812Z,24.38
2017-01-26T02:52:01.043Z,24.4
2017-01-26T02:52:29.045Z,24.36
2017-01-26T02:52:57.210Z,24.38
2017-01-26T02:53:25.215Z,24.31
2017-01-26T02:53:53.307Z,24.37
2017-01-26T02:55:04.531Z,24.36
2017-01-26T02:55:32.505Z,24.29
2017-01-26T02:56:00.692Z,24.37
2017-01-26T02:56:28.745Z,24.34
2017-01-26T02:56:56.900Z,24.26
2017-01-26T02:57:24.924Z,24.28
2017-01-26T02:57:53.065Z,24.28
2017-01-26T02:58:21.347Z,24.23
2017-01-26T02:58:49.610Z,24.33
2017-01-26T02:59:17.712Z,24.26
2017-01-26T02:59:45.986Z,24.34
2017-01-26T03:00:57.032Z,24.33
2017-01-26T03:01:25.193Z,24.33
2017-01-26T03:01:53.195Z,24.33
2017-01-26T03:02:21.428Z,24.28
2017-01-26T03:02:49.589Z,24.29
2017-01-26T03:03:17.707Z,24.25
2017-01-26T03:03:45.850Z,24.36
2017-01-26T03:04:14.135Z,24.29
2017-01-26T03:04:42.398Z,24.31
2017-01-26T03:05:10.313Z,24.29
2017-01-26T03:05:38.307Z,24.31
2017-01-26T03:06:49.437Z,24.29
2017-01-26T03:07:17.415Z,24.26
2017-01-26T03:07:45.603Z,24.33
2017-01-26T03:08:13.844Z,24.22
2017-01-26T03:08:42.092Z,24.31
2017-01-26T03:09:10.122Z,24.29
2017-01-26T03:09:38.704Z,24.29
2017-01-26T03:10:06.984Z,24.22
2017-01-26T03:10:35.053Z,24.28
2017-01-26T03:11:03.057Z,24.25
2017-01-26T03:11:31.240Z,24.26
2017-01-26T03:12:42.561Z,24.31
2017-01-26T03:13:10.723Z,24.25
2017-01-26T03:13:38.911Z,24.31
2017-01-26T03:14:06.965Z,24.22
2017-01-26T03:14:35.031Z,24.23
2017-01-26T03:15:03.151Z,24.31
2017-01-26T03:15:31.293Z,24.29
2017-01-26T03:15:59.579Z,24.23
2017-01-26T03:16:27.560Z,24.29
2017-01-26T03:16:55.659Z,24.19
2017-01-26T03:17:23.656Z,24.28
2017-01-26T03:18:34.888Z,24.28
2017-01-26T03:19:03.145Z,24.33
2017-01-26T03:19:31.335Z,24.23
2017-01-26T03:19:59.571Z,24.29
2017-01-26T03:20:27.817Z,24.26
2017-01-26T03:20:55.843Z,24.23
2017-01-26T03:21:23.890Z,24.26
2017-01-26T03:21:52.080Z,24.22
2017-01-26T03:22:20.248Z,24.29
2017-01-26T03:22:48.448Z,24.22
2017-01-26T03:23:16.716Z,24.23
2017-01-26T03:24:28.035Z,24.22
2017-01-26T03:24:56.194Z,24.15
2017-01-26T03:25:24.477Z,24.13
2017-01-26T03:25:52.617Z,24.22
2017-01-26T03:26:20.780Z,24.11
2017-01-26T03:26:48.802Z,24.15
2017-01-26T03:27:16.940Z,24.16
2017-01-26T03:27:45.036Z,24.18
2017-01-26T03:28:13.196Z,24.18
2017-01-26T03:28:41.300Z,24.11
2017-01-26T03:29:09.294Z,24.15
2017-01-26T03:30:20.523Z,24.15
2017-01-26T03:30:48.685Z,24.15
2017-01-26T03:31:16.873Z,24.15
2017-01-26T03:31:44.924Z,24.11
2017-01-26T03:32:13.176Z,24.21
2017-01-26T03:32:41.300Z,24.18
2017-01-26T03:33:09.538Z,24.13
2017-01-26T03:33:37.831Z,24.16
2017-01-26T03:34:06.002Z,24.21
2017-01-26T03:34:34.187Z,24.08
2017-01-26T03:35:02.370Z,24.11
2017-01-26T03:36:13.684Z,24.18
2017-01-26T03:36:41.660Z,24.18
2017-01-26T03:37:09.847Z,24.08
2017-01-26T03:37:38.017Z,24.19
2017-01-26T03:38:06.050Z,24.13
2017-01-26T03:38:34.162Z,24.11
2017-01-26T03:39:02.400Z,24.18
2017-01-26T03:39:30.679Z,24.16
2017-01-26T03:39:58.936Z,24.13
2017-01-26T03:40:26.946Z,24.18
2017-01-26T03:40:55.133Z,24.15
2017-01-26T03:42:06.360Z,24.19
2017-01-26T03:42:34.613Z,24.06
2017-01-26T03:43:02.801Z,24.15
2017-01-26T03:43:30.868Z,24.15
2017-01-26T03:43:58.838Z,24.1
2017-01-26T03:44:26.952Z,24.15
2017-01-26T03:44:55.094Z,24.11
2017-01-26T03:45:23.378Z,24.1
2017-01-26T03:45:51.543Z,24.11
2017-01-26T03:46:19.551Z,24.18
2017-01-26T03:46:47.824Z,24.16
2017-01-26T03:47:58.956Z,24.1
2017-01-26T03:48:26.931Z,24.11
2017-01-26T03:48:55.027Z,24.15
2017-01-26T03:49:23.174Z,24.08
2017-01-26T03:49:51.328Z,24.04
2017-01-26T03:50:19.353Z,24.16
2017-01-26T03:50:47.588Z,24.08
2017-01-26T03:51:15.597Z,24.08
2017-01-26T03:51:43.674Z,24.11
2017-01-26T03:52:11.679Z,24.11
2017-01-26T03:52:39.861Z,24.07
2017-01-26T03:53:50.999Z,24.11
2017-01-26T03:54:19.064Z,24.03
2017-01-26T03:54:47.155Z,24.04
2017-01-26T03:55:15.297Z,24.03
2017-01-26T03:55:43.451Z,24.03
2017-01-26T03:56:11.377Z,24.03
2017-01-26T03:56:39.517Z,24.06
2017-01-26T03:57:07.618Z,24.03
2017-01-26T03:57:35.684Z,23.97
2017-01-26T03:58:03.877Z,24.03
2017-01-26T03:58:32.063Z,23.97
2017-01-26T03:59:43.293Z,23.94
2017-01-26T04:00:11.354Z,24
2017-01-26T04:00:39.636Z,23.97
2017-01-26T04:01:07.783Z,24
2017-01-26T04:01:35.849Z,24
2017-01-26T04:02:03.869Z,24.01
2017-01-26T04:02:32.107Z,23.94
2017-01-26T04:03:00.296Z,23.98
2017-01-26T04:03:28.365Z,24
2017-01-26T04:03:56.463Z,23.94
2017-01-26T04:04:24.646Z,23.92
2017-01-26T04:05:35.780Z,23.96
2017-01-26T04:06:03.848Z,24.03
2017-01-26T04:06:32.132Z,23.94
2017-01-26T04:07:00.278Z,24
2017-01-26T04:07:28.433Z,24.04
2017-01-26T04:07:56.459Z,24.01
2017-01-26T04:08:24.597Z,24
2017-01-26T04:08:52.881Z,24.06
2017-01-26T04:09:20.862Z,23.94
2017-01-26T04:09:49.063Z,23.94
2017-01-26T04:10:17.332Z,23.94
2017-01-26T04:11:28.558Z,24.03
2017-01-26T04:11:56.739Z,23.89
2017-01-26T04:12:24.912Z,23.89
2017-01-26T04:12:53.144Z,23.94
2017-01-26T04:13:21.204Z,23.91
2017-01-26T04:13:49.229Z,23.94
2017-01-26T04:14:17.460Z,23.98
2017-01-26T04:14:45.744Z,23.97
2017-01-26T04:15:14.002Z,23.89
2017-01-26T04:15:42.011Z,23.94
2017-01-26T04:16:10.013Z,23.94
2017-01-26T04:17:21.339Z,23.89
2017-01-26T04:17:49.497Z,23.79
2017-01-26T04:18:17.779Z,23.88
2017-01-26T04:18:46.011Z,23.88
2017-01-26T04:19:13.969Z,23.84
2017-01-26T04:19:42.086Z,23.74
2017-01-26T04:20:10.317Z,23.79
2017-01-26T04:20:38.515Z,23.82
2017-01-26T04:21:06.500Z,23.78
2017-01-26T04:21:34.597Z,23.76
2017-01-26T04:22:02.598Z,23.82
2017-01-26T04:23:13.732Z,23.79
2017-01-26T04:23:41.990Z,23.78
2017-01-26T04:24:10.265Z,23.79
2017-01-26T04:24:38.503Z,23.88
2017-01-26T04:25:06.655Z,23.84
2017-01-26T04:25:34.869Z,23.82
2017-01-26T04:26:03.010Z,23.82
2017-01-26T04:26:31.203Z,23.84
2017-01-26T04:26:59.463Z,23.82
2017-01-26T04:27:27.470Z,23.82
2017-01-26T04:27:55.745Z,23.81
2017-01-26T04:29:06.973Z,23.73
2017-01-26T04:29:35.040Z,23.79
2017-01-26T04:30:03.326Z,23.84
2017-01-26T04:30:31.557Z,23.84
2017-01-26T04:30:59.715Z,23.81
2017-01-26T04:31:27.931Z,23.76
2017-01-26T04:31:56.073Z,23.82
2017-01-26T04:32:24.164Z,23.79
2017-01-26T04:32:52.333Z,23.79
2017-01-26T04:33:20.532Z,23.84
2017-01-26T04:33:48.714Z,23.71
2017-01-26T04:34:59.938Z,23.79
2017-01-26T04:35:28.103Z,23.73
2017-01-26T04:35:56.290Z,23.7
2017-01-26T04:36:24.531Z,23.71
2017-01-26T04:36:52.684Z,23.67
2017-01-26T04:37:20.898Z,23.67
2017-01-26T04:37:49.041Z,23.69
2017-01-26T04:38:17.043Z,23.74
2017-01-26T04:38:45.306Z,23.7
2017-01-26T04:39:13.404Z,23.7
2017-01-26T04:39:41.493Z,23.69
2017-01-26T04:40:52.625Z,23.63
2017-01-26T04:41:20.881Z,23.63
2017-01-26T04:41:49.067Z,23.6
2017-01-26T04:42:17.304Z,23.63
2017-01-26T04:42:45.468Z,23.59
2017-01-26T04:43:13.495Z,23.63
2017-01-26T04:43:41.729Z,23.59
2017-01-26T04:44:09.921Z,23.51
2017-01-26T04:44:38.076Z,23.51
2017-01-26T04:45:06.083Z,23.61
2017-01-26T04:45:34.169Z,23.54
2017-01-26T04:46:45.399Z,23.52
2017-01-26T04:47:13.652Z,23.48
2017-01-26T04:47:41.842Z,23.54
2017-01-26T04:48:09.988Z,23.54
2017-01-26T04:48:38.239Z,23.59
2017-01-26T04:49:06.452Z,23.52
2017-01-26T04:49:34.594Z,23.48
2017-01-26T04:50:02.786Z,23.51
2017-01-26T04:50:30.672Z,23.51
2017-01-26T04:50:58.683Z,23.59
2017-01-26T04:51:26.959Z,23.55
2017-01-26T04:52:38.188Z,23.54
2017-01-26T04:53:06.254Z,23.45
2017-01-26T04:53:34.350Z,23.48
2017-01-26T04:54:02.501Z,23.51
2017-01-26T04:54:30.656Z,23.46
2017-01-26T04:54:58.781Z,23.48
2017-01-26T04:55:26.829Z,23.48
2017-01-26T04:55:55.021Z,23.49
2017-01-26T04:56:23.183Z,23.51
2017-01-26T04:56:51.381Z,23.46
2017-01-26T04:57:19.650Z,23.48
2017-01-26T04:58:30.786Z,23.48
2017-01-26T04:58:58.947Z,23.49
2017-01-26T04:59:27.224Z,23.48
2017-01-26T04:59:55.278Z,23.42
2017-01-26T05:00:23.528Z,23.46
2017-01-26T05:00:51.647Z,23.49
2017-01-26T05:01:19.885Z,23.46
2017-01-26T05:01:47.980Z,23.44
2017-01-26T05:02:16.236Z,23.48
2017-01-26T05:02:44.314Z,23.44
2017-01-26T05:03:12.472Z,23.49
2017-01-26T05:04:23.794Z,23.49
2017-01-26T05:04:51.875Z,23.45
2017-01-26T05:05:20.008Z,23.48
2017-01-26T05:05:48.152Z,23.48
2017-01-26T05:06:16.319Z,23.46
2017-01-26T05:06:44.485Z,23.44
2017-01-26T05:07:12.758Z,23.46
2017-01-26T05:07:41.077Z,23.49
2017-01-26T05:08:09.284Z,23.46
2017-01-26T05:08:37.392Z,23.46
2017-01-26T05:09:05.553Z,23.48
2017-01-26T05:10:16.779Z,23.42
2017-01-26T05:10:44.953Z,23.45
2017-01-26T05:11:13.085Z,23.46
2017-01-26T05:11:41.320Z,23.46
2017-01-26T05:12:09.584Z,23.45
2017-01-26T05:12:37.751Z,23.46
2017-01-26T05:13:06.025Z,23.48
2017-01-26T05:13:34.208Z,23.41
2017-01-26T05:14:02.508Z,23.45
2017-01-26T05:14:30.712Z,23.46
2017-01-26T05:14:59.061Z,23.36
2017-01-26T05:16:10.099Z,23.49
2017-01-26T05:16:38.269Z,23.46
2017-01-26T05:17:06.501Z,23.37
2017-01-26T05:17:34.732Z,23.36
2017-01-26T05:18:02.805Z,23.37
2017-01-26T05:18:30.882Z,23.37
2017-01-26T05:18:59.069Z,23.41
2017-01-26T05:19:27.292Z,23.39
2017-01-26T05:19:55.592Z,23.33
2017-01-26T05:20:23.802Z,23.28
2017-01-26T05:20:52.063Z,23.33
2017-01-26T05:22:03.195Z,23.21
2017-01-26T05:22:31.271Z,23.23
2017-01-26T05:22:59.408Z,23.29
2017-01-26T05:23:27.648Z,23.28
2017-01-26T05:23:55.810Z,23.26
2017-01-26T05:24:24.419Z,23.28
2017-01-26T05:24:52.510Z,23.23
2017-01-26T05:25:20.735Z,23.18
2017-01-26T05:25:48.752Z,23.22
2017-01-26T05:26:16.771Z,23.25
2017-01-26T05:26:45.117Z,23.11
2017-01-26T05:27:56.439Z,23.18
2017-01-26T05:28:24.698Z,23.21
2017-01-26T05:28:52.932Z,23.14
2017-01-26T05:29:21.178Z,23.25
2017-01-26T05:29:49.438Z,23.21
2017-01-26T05:30:17.417Z,23.15
2017-01-26T05:30:45.694Z,23.15
2017-01-26T05:31:13.830Z,23.15
2017-01-26T05:31:42.124Z,23.22
2017-01-26T05:32:10.233Z,23.06
2017-01-26T05:32:38.587Z,23.14
2017-01-26T05:33:49.912Z,23.06
2017-01-26T05:34:18.088Z,23.1
2017-01-26T05:34:46.130Z,23.14
2017-01-26T05:35:14.268Z,23.04
2017-01-26T05:35:42.521Z,23.14
2017-01-26T05:36:10.589Z,23.13
2017-01-26T05:36:38.680Z,23.15
2017-01-26T05:37:06.808Z,23.18
2017-01-26T05:37:34.825Z,23.11
2017-01-26T05:38:02.941Z,23.21
2017-01-26T05:38:31.048Z,23.17
2017-01-26T05:39:42.277Z,23.1
2017-01-26T05:40:10.451Z,23.1
2017-01-26T05:40:38.707Z,23.1
2017-01-26T05:41:06.852Z,23.1
2017-01-26T05:41:34.929Z,23.11
2017-01-26T05:42:03.191Z,23.03
2017-01-26T05:42:31.465Z,23.06
2017-01-26T05:42:59.693Z,23.13
2017-01-26T05:43:27.987Z,23.1
2017-01-26T05:43:56.093Z,23.13
2017-01-26T05:44:24.159Z,23.14
2017-01-26T05:45:35.482Z,23.13
2017-01-26T05:46:03.656Z,23.15
2017-01-26T05:46:31.890Z,23.13
2017-01-26T05:47:00.029Z,23.14
2017-01-26T05:47:28.193Z,23.08
2017-01-26T05:47:56.459Z,23.15
2017-01-26T05:48:24.640Z,23.07
2017-01-26T05:48:52.771Z,23.15
2017-01-26T05:49:20.981Z,23.13
2017-01-26T05:49:49.094Z,23.18
2017-01-26T05:50:17.259Z,23.11
2017-01-26T05:51:28.578Z,23.07
2017-01-26T05:51:56.748Z,23.1
2017-01-26T05:52:24.889Z,23.11
2017-01-26T05:52:53.119Z,23.21
2017-01-26T05:53:21.380Z,23.15
2017-01-26T05:53:49.542Z,23.18
2017-01-26T05:54:17.539Z,23.21
2017-01-26T05:54:45.761Z,23.18
2017-01-26T05:55:14.061Z,23.14
2017-01-26T05:55:42.270Z,23.13
2017-01-26T05:56:10.523Z,23.14
2017-01-26T05:57:21.662Z,23.1
2017-01-26T05:57:49.745Z,23.14
2017-01-26T05:58:18.068Z,23.08
2017-01-26T05:58:46.393Z,23.14
2017-01-26T05:59:14.466Z,23.13
2017-01-26T05:59:42.635Z,23.15
2017-01-26T06:00:10.915Z,23.15
2017-01-26T06:00:39.140Z,23.1
2017-01-26T06:01:07.439Z,23.21
2017-01-26T06:01:35.455Z,23.15
2017-01-26T06:02:03.442Z,23.21
2017-01-26T06:03:14.761Z,23.15
2017-01-26T06:03:42.943Z,23.14
2017-01-26T06:04:11.170Z,23.07
2017-01-26T06:04:39.496Z,23.1
2017-01-26T06:05:07.655Z,23.08
2017-01-26T06:05:35.728Z,23.08
2017-01-26T06:06:04.003Z,23.1
2017-01-26T06:06:32.322Z,23.1
2017-01-26T06:07:00.334Z,23.04
2017-01-26T06:07:28.354Z,23.07
2017-01-26T06:07:56.516Z,23.15
2017-01-26T06:09:07.648Z,23.1
2017-01-26T06:09:35.723Z,23.13
2017-01-26T06:10:03.953Z,23.15
2017-01-26T06:10:32.094Z,23.15
2017-01-26T06:11:00.352Z,23.1
2017-01-26T06:11:28.423Z,23.15
2017-01-26T06:11:56.694Z,23.06
2017-01-26T06:12:24.822Z,23.1
2017-01-26T06:12:53.121Z,23.07
2017-01-26T06:13:21.328Z,23.07
2017-01-26T06:13:49.675Z,23.08
2017-01-26T06:15:00.999Z,23.1
2017-01-26T06:15:29.078Z,23.13
2017-01-26T06:15:57.309Z,23.04
2017-01-26T06:16:25.662Z,23.1
2017-01-26T06:16:53.612Z,23.06
2017-01-26T06:17:21.680Z,23.11
2017-01-26T06:17:49.767Z,23.08
2017-01-26T06:18:17.903Z,23.1
2017-01-26T06:18:46.202Z,23.08
2017-01-26T06:19:14.409Z,23.06
2017-01-26T06:19:42.757Z,23.08
2017-01-26T06:20:54.076Z,23.1
2017-01-26T06:21:22.253Z,23.07
2017-01-26T06:21:50.392Z,23.04
2017-01-26T06:22:18.623Z,23.11
2017-01-26T06:22:46.795Z,23.14
2017-01-26T06:23:14.963Z,23.14
2017-01-26T06:23:43.238Z,23.14
2017-01-26T06:24:11.369Z,23.14
2017-01-26T06:24:39.388Z,23.11
2017-01-26T06:25:07.498Z,23.1
2017-01-26T06:25:35.759Z,23.15
2017-01-26T06:26:46.988Z,23.11
2017-01-26T06:27:15.253Z,23.08
2017-01-26T06:27:43.388Z,23.14
2017-01-26T06:28:11.524Z,23.13
2017-01-26T06:28:39.780Z,23.14
2017-01-26T06:29:07.855Z,23.07
2017-01-26T06:29:36.127Z,23.06
2017-01-26T06:30:04.168Z,23.04
2017-01-26T06:30:32.283Z,23.07
2017-01-26T06:31:00.485Z,23.11
2017-01-26T06:31:28.648Z,23.13
2017-01-26T06:32:39.875Z,23.15
2017-01-26T06:33:08.139Z,23.08
2017-01-26T06:33:36.376Z,23.18
2017-01-26T06:34:04.702Z,23.06
2017-01-26T06:34:32.860Z,23.14
2017-01-26T06:35:01.025Z,23.07
2017-01-26T06:35:29.300Z,23.11
2017-01-26T06:35:57.525Z,23.01
2017-01-26T06:36:25.825Z,23.04
2017-01-26T06:36:54.026Z,23.14
2017-01-26T06:37:22.099Z,23.11
2017-01-26T06:38:33.418Z,23.11
2017-01-26T06:39:01.596Z,23.07
2017-01-26T06:39:29.734Z,23.08
2017-01-26T06:39:58.054Z,23.01
2017-01-26T06:40:26.138Z,23.06
2017-01-26T06:40:54.397Z,23.1
2017-01-26T06:41:22.672Z,23.03
2017-01-26T06:41:50.708Z,22.98
2017-01-26T06:42:18.916Z,22.93
2017-01-26T06:42:47.117Z,22.98
2017-01-26T06:43:15.365Z,22.96
2017-01-26T06:44:26.583Z,22.91
2017-01-26T06:44:54.564Z,22.91
2017-01-26T06:45:22.795Z,22.88
2017-01-26T06:45:51.032Z,22.85
2017-01-26T06:46:19.194Z,22.91
2017-01-26T06:46:47.355Z,22.89
2017-01-26T06:47:15.532Z,22.86
2017-01-26T06:47:43.756Z,22.85
2017-01-26T06:48:11.968Z,22.85
2017-01-26T06:48:39.987Z,22.86
2017-01-26T06:49:08.234Z,22.95
2017-01-26T06:50:19.458Z,22.89
2017-01-26T06:50:47.722Z,22.85
2017-01-26T06:51:15.954Z,22.8
2017-01-26T06:51:44.091Z,22.88
2017-01-26T06:52:12.260Z,22.83
2017-01-26T06:52:40.425Z,22.92
2017-01-26T06:53:08.697Z,22.89
2017-01-26T06:53:36.826Z,22.83
2017-01-26T06:54:05.031Z,22.74
2017-01-26T06:54:33.141Z,22.86